sensor_id;sensor_type;location;lat;lon;timestamp;temperature;humidity
38604;DHT22;24924;50.054;8.790;2023-01-16T00:15:46;5.50;99.90
38604;DHT22;24924;50.054;8.790;2023-01-16T01:43:50;5.90;99.90
38604;DHT22;24924;50.054;8.790;2023-01-16T01:54:03;5.80;99.90
38604;DHT22;24924;50.054;8.790;2023-01-16T02:04:02;5.70;99.90
38604;DHT22;24924;50.054;8.790;2023-01-16T02:51:33;5.90;99.90
38604;DHT22;24924;50.054;8.790;2023-01-16T03:26:30;5.70;99.90
38604;DHT22;24924;50.054;8.790;2023-01-16T03:31:31;5.70;99.90
38604;DHT22;24924;50.054;8.790;2023-01-16T03:42:18;5.70;99.90
38604;DHT22;24924;50.054;8.790;2023-01-16T03:47:20;5.70;99.90
38604;DHT22;24924;50.054;8.790;2023-01-16T03:49:52;5.70;99.90
38604;DHT22;24924;50.054;8.790;2023-01-16T03:52:22;5.70;99.90
38604;DHT22;24924;50.054;8.790;2023-01-16T03:55:13;5.70;99.90
38604;DHT22;24924;50.054;8.790;2023-01-16T03:57:57;5.70;99.90
38604;DHT22;24924;50.054;8.790;2023-01-16T04:00:31;5.70;99.90
38604;DHT22;24924;50.054;8.790;2023-01-16T04:05:56;5.70;99.90
38604;DHT22;24924;50.054;8.790;2023-01-16T04:20:43;5.60;99.90
38604;DHT22;24924;50.054;8.790;2023-01-16T06:30:10;5.40;99.90
38604;DHT22;24924;50.054;8.790;2023-01-16T07:25:21;4.90;99.90
38604;DHT22;24924;50.054;8.790;2023-01-16T07:30:18;4.90;99.90
38604;DHT22;24924;50.054;8.790;2023-01-16T07:44:57;5.70;99.90
38604;DHT22;24924;50.054;8.790;2023-01-16T07:47:23;5.80;99.90
38604;DHT22;24924;50.054;8.790;2023-01-16T07:49:49;4.20;99.90
38604;DHT22;24924;50.054;8.790;2023-01-16T07:52:15;4.60;99.90
38604;DHT22;24924;50.054;8.790;2023-01-16T07:54:42;5.00;99.90
38604;DHT22;24924;50.054;8.790;2023-01-16T07:57:08;4.70;99.90
38604;DHT22;24924;50.054;8.790;2023-01-16T08:02:00;6.20;99.90
38604;DHT22;24924;50.054;8.790;2023-01-16T08:06:54;4.90;99.90
38604;DHT22;24924;50.054;8.790;2023-01-16T08:11:46;4.80;99.90
38604;DHT22;24924;50.054;8.790;2023-01-16T08:14:14;5.10;99.90
38604;DHT22;24924;50.054;8.790;2023-01-16T08:16:41;5.30;99.90
38604;DHT22;24924;50.054;8.790;2023-01-16T08:19:07;5.10;99.90
38604;DHT22;24924;50.054;8.790;2023-01-16T08:21:33;5.10;99.90
38604;DHT22;24924;50.054;8.790;2023-01-16T08:26:24;6.50;99.90
38604;DHT22;24924;50.054;8.790;2023-01-16T08:31:17;5.30;99.90
38604;DHT22;24924;50.054;8.790;2023-01-16T08:33:44;5.30;99.90
38604;DHT22;24924;50.054;8.790;2023-01-16T08:36:11;5.30;99.90
38604;DHT22;24924;50.054;8.790;2023-01-16T08:41:04;5.20;99.90
38604;DHT22;24924;50.054;8.790;2023-01-16T08:46:22;5.40;99.90
38604;DHT22;24924;50.054;8.790;2023-01-16T08:49:12;5.40;99.90
38604;DHT22;24924;50.054;8.790;2023-01-16T08:51:57;5.40;99.90
38604;DHT22;24924;50.054;8.790;2023-01-16T08:59:15;5.50;99.90
38604;DHT22;24924;50.054;8.790;2023-01-16T09:01:41;6.10;99.90
38604;DHT22;24924;50.054;8.790;2023-01-16T09:04:07;5.80;99.90
38604;DHT22;24924;50.054;8.790;2023-01-16T09:09:04;5.80;99.90
38604;DHT22;24924;50.054;8.790;2023-01-16T09:11:31;5.70;99.90
38604;DHT22;24924;50.054;8.790;2023-01-16T09:14:16;5.70;99.90
38604;DHT22;24924;50.054;8.790;2023-01-16T09:19:08;5.70;99.90
38604;DHT22;24924;50.054;8.790;2023-01-16T09:21:34;5.80;99.90
38604;DHT22;24924;50.054;8.790;2023-01-16T09:26:25;5.80;99.90
38604;DHT22;24924;50.054;8.790;2023-01-16T09:28:51;6.00;99.90
38604;DHT22;24924;50.054;8.790;2023-01-16T09:31:17;6.00;99.90
38604;DHT22;24924;50.054;8.790;2023-01-16T09:38:39;5.80;99.90
38604;DHT22;24924;50.054;8.790;2023-01-16T09:41:05;5.90;99.90
38604;DHT22;24924;50.054;8.790;2023-01-16T09:46:19;5.60;99.90
38604;DHT22;24924;50.054;8.790;2023-01-16T09:51:38;5.20;99.90
38604;DHT22;24924;50.054;8.790;2023-01-16T09:54:12;5.20;99.90
38604;DHT22;24924;50.054;8.790;2023-01-16T09:57:01;5.60;99.90
38604;DHT22;24924;50.054;8.790;2023-01-16T09:59:49;5.60;99.90
38604;DHT22;24924;50.054;8.790;2023-01-16T10:02:31;5.90;99.90
38604;DHT22;24924;50.054;8.790;2023-01-16T10:05:00;5.60;99.90
38604;DHT22;24924;50.054;8.790;2023-01-16T10:07:50;5.70;99.90
38604;DHT22;24924;50.054;8.790;2023-01-16T10:10:36;5.60;99.90
38604;DHT22;24924;50.054;8.790;2023-01-16T10:13:26;5.80;99.90
38604;DHT22;24924;50.054;8.790;2023-01-16T10:18:58;5.90;99.90
38604;DHT22;24924;50.054;8.790;2023-01-16T10:27:18;5.70;99.90
38604;DHT22;24924;50.054;8.790;2023-01-16T10:30:25;5.70;99.90
38604;DHT22;24924;50.054;8.790;2023-01-16T10:33:08;5.40;99.90
38604;DHT22;24924;50.054;8.790;2023-01-16T10:35:42;5.60;99.90
38604;DHT22;24924;50.054;8.790;2023-01-16T10:38:32;5.40;99.90
38604;DHT22;24924;50.054;8.790;2023-01-16T10:41:17;5.40;99.90
38604;DHT22;24924;50.054;8.790;2023-01-16T10:47:10;5.30;99.90
38604;DHT22;24924;50.054;8.790;2023-01-16T10:49:55;5.10;99.90
38604;DHT22;24924;50.054;8.790;2023-01-16T10:52:21;4.80;99.90
38604;DHT22;24924;50.054;8.790;2023-01-16T10:54:47;4.90;99.90
38604;DHT22;24924;50.054;8.790;2023-01-16T10:57:16;4.70;99.90
38604;DHT22;24924;50.054;8.790;2023-01-16T10:59:44;4.60;99.90
38604;DHT22;24924;50.054;8.790;2023-01-16T11:02:40;4.80;99.90
38604;DHT22;24924;50.054;8.790;2023-01-16T11:05:28;4.50;99.90
38604;DHT22;24924;50.054;8.790;2023-01-16T11:07:56;4.60;99.90
38604;DHT22;24924;50.054;8.790;2023-01-16T11:18:28;4.70;99.90
38604;DHT22;24924;50.054;8.790;2023-01-16T11:21:13;4.60;99.90
38604;DHT22;24924;50.054;8.790;2023-01-16T11:23:42;4.70;99.90
38604;DHT22;24924;50.054;8.790;2023-01-16T11:26:09;4.70;99.90
38604;DHT22;24924;50.054;8.790;2023-01-16T11:28:36;6.10;99.90
38604;DHT22;24924;50.054;8.790;2023-01-16T11:31:23;4.80;99.90
38604;DHT22;24924;50.054;8.790;2023-01-16T11:33:56;4.60;99.90
38604;DHT22;24924;50.054;8.790;2023-01-16T11:36:33;4.60;99.90
38604;DHT22;24924;50.054;8.790;2023-01-16T11:39:03;4.80;99.90
38604;DHT22;24924;50.054;8.790;2023-01-16T11:41:33;4.80;99.90
38604;DHT22;24924;50.054;8.790;2023-01-16T11:44:15;5.70;99.90
38604;DHT22;24924;50.054;8.790;2023-01-16T11:47:01;4.90;99.90
38604;DHT22;24924;50.054;8.790;2023-01-16T11:49:36;4.90;99.90
38604;DHT22;24924;50.054;8.790;2023-01-16T11:52:03;5.00;99.90
38604;DHT22;24924;50.054;8.790;2023-01-16T11:54:32;5.00;99.90
38604;DHT22;24924;50.054;8.790;2023-01-16T11:57:09;5.70;99.90
38604;DHT22;24924;50.054;8.790;2023-01-16T11:59:58;5.20;99.90
38604;DHT22;24924;50.054;8.790;2023-01-16T12:08:48;5.30;99.90
38604;DHT22;24924;50.054;8.790;2023-01-16T12:22:31;5.30;99.90
38604;DHT22;24924;50.054;8.790;2023-01-16T12:25:13;5.70;99.90
38604;DHT22;24924;50.054;8.790;2023-01-16T12:27:46;5.70;99.90
38604;DHT22;24924;50.054;8.790;2023-01-16T12:32:55;5.70;99.90
38604;DHT22;24924;50.054;8.790;2023-01-16T12:35:33;5.40;99.90
38604;DHT22;24924;50.054;8.790;2023-01-16T12:38:11;6.60;99.90
38604;DHT22;24924;50.054;8.790;2023-01-16T12:43:19;5.80;99.90
38604;DHT22;24924;50.054;8.790;2023-01-16T12:48:36;6.10;99.90
38604;DHT22;24924;50.054;8.790;2023-01-16T12:59:34;6.80;99.90
38604;DHT22;24924;50.054;8.790;2023-01-16T13:04:46;7.60;99.90
38604;DHT22;24924;50.054;8.790;2023-01-16T13:07:16;7.90;99.90
38604;DHT22;24924;50.054;8.790;2023-01-16T13:09:51;7.80;99.90
38604;DHT22;24924;50.054;8.790;2023-01-16T13:12:39;7.80;99.90
38604;DHT22;24924;50.054;8.790;2023-01-16T13:15:28;7.70;99.90
38604;DHT22;24924;50.054;8.790;2023-01-16T13:18:00;7.70;99.90
38604;DHT22;24924;50.054;8.790;2023-01-16T13:20:29;7.60;99.90
38604;DHT22;24924;50.054;8.790;2023-01-16T13:22:59;7.50;99.90
38604;DHT22;24924;50.054;8.790;2023-01-16T13:25:39;7.30;99.90
38604;DHT22;24924;50.054;8.790;2023-01-16T13:28:37;7.50;99.90
38604;DHT22;24924;50.054;8.790;2023-01-16T13:34:01;5.70;99.90
38604;DHT22;24924;50.054;8.790;2023-01-16T13:36:44;7.70;99.90
38604;DHT22;24924;50.054;8.790;2023-01-16T13:39:45;6.80;99.90
38604;DHT22;24924;50.054;8.790;2023-01-16T13:42:16;7.60;99.90
38604;DHT22;24924;50.054;8.790;2023-01-16T13:44:49;6.80;99.90
38604;DHT22;24924;50.054;8.790;2023-01-16T13:50:21;6.80;99.90
38604;DHT22;24924;50.054;8.790;2023-01-16T13:52:48;6.20;99.90
38604;DHT22;24924;50.054;8.790;2023-01-16T13:55:30;6.90;99.90
38604;DHT22;24924;50.054;8.790;2023-01-16T13:58:16;7.00;99.90
38604;DHT22;24924;50.054;8.790;2023-01-16T14:11:16;7.00;99.90
38604;DHT22;24924;50.054;8.790;2023-01-16T14:16:35;7.10;99.90
38604;DHT22;24924;50.054;8.790;2023-01-16T14:21:42;7.10;99.90
38604;DHT22;24924;50.054;8.790;2023-01-16T14:24:40;7.20;99.90
38604;DHT22;24924;50.054;8.790;2023-01-16T14:27:11;7.10;99.90
38604;DHT22;24924;50.054;8.790;2023-01-16T14:29:54;7.20;99.90
38604;DHT22;24924;50.054;8.790;2023-01-16T14:32:25;7.00;99.90
38604;DHT22;24924;50.054;8.790;2023-01-16T14:34:59;6.90;99.90
38604;DHT22;24924;50.054;8.790;2023-01-16T14:37:35;7.10;99.90
38604;DHT22;24924;50.054;8.790;2023-01-16T14:42:37;6.90;99.90
38604;DHT22;24924;50.054;8.790;2023-01-16T14:54:02;7.70;99.90
38604;DHT22;24924;50.054;8.790;2023-01-16T14:56:52;6.90;99.90
38604;DHT22;24924;50.054;8.790;2023-01-16T14:59:22;6.90;99.90
38604;DHT22;24924;50.054;8.790;2023-01-16T15:01:57;6.90;99.90
38604;DHT22;24924;50.054;8.790;2023-01-16T15:04:58;6.90;99.90
38604;DHT22;24924;50.054;8.790;2023-01-16T15:07:37;6.80;99.90
38604;DHT22;24924;50.054;8.790;2023-01-16T15:10:16;6.90;99.90
38604;DHT22;24924;50.054;8.790;2023-01-16T15:12:44;6.90;99.90
38604;DHT22;24924;50.054;8.790;2023-01-16T15:15:25;6.90;99.90
38604;DHT22;24924;50.054;8.790;2023-01-16T15:17:55;6.80;99.90
38604;DHT22;24924;50.054;8.790;2023-01-16T15:20:45;8.00;99.90
38604;DHT22;24924;50.054;8.790;2023-01-16T15:23:32;6.10;99.90
38604;DHT22;24924;50.054;8.790;2023-01-16T15:31:21;6.90;99.90
38604;DHT22;24924;50.054;8.790;2023-01-16T15:34:19;6.80;99.90
38604;DHT22;24924;50.054;8.790;2023-01-16T15:36:49;6.80;99.90
38604;DHT22;24924;50.054;8.790;2023-01-16T15:39:30;7.00;99.90
38604;DHT22;24924;50.054;8.790;2023-01-16T15:42:09;6.70;99.90
38604;DHT22;24924;50.054;8.790;2023-01-16T15:44:57;6.40;99.90
38604;DHT22;24924;50.054;8.790;2023-01-16T15:48:14;6.60;99.90
38604;DHT22;24924;50.054;8.790;2023-01-16T15:51:08;5.10;99.90
38604;DHT22;24924;50.054;8.790;2023-01-16T15:53:43;6.50;99.90
38604;DHT22;24924;50.054;8.790;2023-01-16T15:56:33;6.40;99.90
38604;DHT22;24924;50.054;8.790;2023-01-16T15:58:58;6.30;99.90
38604;DHT22;24924;50.054;8.790;2023-01-16T16:01:32;6.00;99.90
38604;DHT22;24924;50.054;8.790;2023-01-16T16:04:01;5.80;99.90
38604;DHT22;24924;50.054;8.790;2023-01-16T16:06:28;6.00;99.90
38604;DHT22;24924;50.054;8.790;2023-01-16T16:08:56;5.50;99.90
38604;DHT22;24924;50.054;8.790;2023-01-16T16:11:30;5.70;99.90
38604;DHT22;24924;50.054;8.790;2023-01-16T16:14:27;5.60;99.90
38604;DHT22;24924;50.054;8.790;2023-01-16T16:17:28;5.50;99.90
38604;DHT22;24924;50.054;8.790;2023-01-16T16:20:36;5.70;99.90
38604;DHT22;24924;50.054;8.790;2023-01-16T16:25:46;5.30;99.90
38604;DHT22;24924;50.054;8.790;2023-01-16T16:28:22;5.60;99.90
38604;DHT22;24924;50.054;8.790;2023-01-16T16:31:20;5.50;99.90
38604;DHT22;24924;50.054;8.790;2023-01-16T16:36:42;5.50;99.90
38604;DHT22;24924;50.054;8.790;2023-01-16T16:41:59;5.60;99.90
38604;DHT22;24924;50.054;8.790;2023-01-16T16:45:10;5.10;99.90
38604;DHT22;24924;50.054;8.790;2023-01-16T16:47:42;5.60;99.90
38604;DHT22;24924;50.054;8.790;2023-01-16T16:50:30;5.20;99.90
38604;DHT22;24924;50.054;8.790;2023-01-16T16:53:12;5.60;99.90
38604;DHT22;24924;50.054;8.790;2023-01-16T16:55:40;5.60;99.90
38604;DHT22;24924;50.054;8.790;2023-01-16T16:58:21;5.70;99.90
38604;DHT22;24924;50.054;8.790;2023-01-16T17:03:19;5.70;99.90
38604;DHT22;24924;50.054;8.790;2023-01-16T17:05:47;5.70;99.90
38604;DHT22;24924;50.054;8.790;2023-01-16T17:08:26;5.30;99.90
38604;DHT22;24924;50.054;8.790;2023-01-16T17:10:56;6.20;99.90
38604;DHT22;24924;50.054;8.790;2023-01-16T17:13:24;4.90;99.90
38604;DHT22;24924;50.054;8.790;2023-01-16T17:15:53;5.70;99.90
38604;DHT22;24924;50.054;8.790;2023-01-16T17:20:45;7.20;99.90
38604;DHT22;24924;50.054;8.790;2023-01-16T17:23:14;4.70;99.90
38604;DHT22;24924;50.054;8.790;2023-01-16T17:28:08;5.20;99.90
38604;DHT22;24924;50.054;8.790;2023-01-16T17:30:34;5.60;99.90
38604;DHT22;24924;50.054;8.790;2023-01-16T17:33:03;5.60;99.90
38604;DHT22;24924;50.054;8.790;2023-01-16T17:35:37;5.90;99.90
38604;DHT22;24924;50.054;8.790;2023-01-16T17:38:14;5.40;99.90
38604;DHT22;24924;50.054;8.790;2023-01-16T17:40:40;4.90;99.90
38604;DHT22;24924;50.054;8.790;2023-01-16T17:43:06;5.80;99.90
38604;DHT22;24924;50.054;8.790;2023-01-16T17:45:53;5.00;99.90
38604;DHT22;24924;50.054;8.790;2023-01-16T17:48:29;5.70;99.90
38604;DHT22;24924;50.054;8.790;2023-01-16T17:50:56;4.90;99.90
38604;DHT22;24924;50.054;8.790;2023-01-16T17:53:24;5.00;99.90
38604;DHT22;24924;50.054;8.790;2023-01-16T17:55:53;5.10;99.90
38604;DHT22;24924;50.054;8.790;2023-01-16T17:58:30;5.50;99.90
38604;DHT22;24924;50.054;8.790;2023-01-16T18:01:14;5.60;99.90
38604;DHT22;24924;50.054;8.790;2023-01-16T18:03:47;5.60;99.90
38604;DHT22;24924;50.054;8.790;2023-01-16T18:06:37;5.60;99.90
38604;DHT22;24924;50.054;8.790;2023-01-16T18:09:05;5.60;99.90
38604;DHT22;24924;50.054;8.790;2023-01-16T18:11:34;5.60;99.90
38604;DHT22;24924;50.054;8.790;2023-01-16T18:14:18;5.50;99.90
38604;DHT22;24924;50.054;8.790;2023-01-16T18:17:03;5.70;99.90
38604;DHT22;24924;50.054;8.790;2023-01-16T18:19:57;5.30;99.90
38604;DHT22;24924;50.054;8.790;2023-01-16T18:22:24;5.50;99.90
38604;DHT22;24924;50.054;8.790;2023-01-16T18:24:50;5.30;99.90
38604;DHT22;24924;50.054;8.790;2023-01-16T18:27:17;5.30;99.90
38604;DHT22;24924;50.054;8.790;2023-01-16T18:29:44;5.50;99.90
38604;DHT22;24924;50.054;8.790;2023-01-16T18:32:11;5.50;99.90
38604;DHT22;24924;50.054;8.790;2023-01-16T18:35:11;5.50;99.90
38604;DHT22;24924;50.054;8.790;2023-01-16T18:37:39;5.50;99.90
38604;DHT22;24924;50.054;8.790;2023-01-16T18:45:35;5.50;99.90
38604;DHT22;24924;50.054;8.790;2023-01-16T18:51:14;5.30;99.90
38604;DHT22;24924;50.054;8.790;2023-01-16T18:53:59;5.50;99.90
38604;DHT22;24924;50.054;8.790;2023-01-16T18:56:50;5.50;99.90
38604;DHT22;24924;50.054;8.790;2023-01-16T18:59:36;5.80;99.90
38604;DHT22;24924;50.054;8.790;2023-01-16T19:04:52;5.00;99.90
38604;DHT22;24924;50.054;8.790;2023-01-16T19:07:21;5.60;99.90
38604;DHT22;24924;50.054;8.790;2023-01-16T19:09:50;5.30;99.90
38604;DHT22;24924;50.054;8.790;2023-01-16T19:12:19;5.50;99.90
38604;DHT22;24924;50.054;8.790;2023-01-16T19:14:47;5.60;99.90
38604;DHT22;24924;50.054;8.790;2023-01-16T19:17:14;6.30;99.90
38604;DHT22;24924;50.054;8.790;2023-01-16T19:22:06;5.40;99.90
38604;DHT22;24924;50.054;8.790;2023-01-16T19:27:00;5.40;99.90
38604;DHT22;24924;50.054;8.790;2023-01-16T19:29:26;5.30;99.90
38604;DHT22;24924;50.054;8.790;2023-01-16T19:31:54;5.30;99.90
38604;DHT22;24924;50.054;8.790;2023-01-16T19:39:13;5.10;99.90
38604;DHT22;24924;50.054;8.790;2023-01-16T19:41:41;5.20;99.90
38604;DHT22;24924;50.054;8.790;2023-01-16T19:44:25;4.30;99.90
38604;DHT22;24924;50.054;8.790;2023-01-16T19:47:10;4.90;99.90
38604;DHT22;24924;50.054;8.790;2023-01-16T19:52:05;4.40;99.90
38604;DHT22;24924;50.054;8.790;2023-01-16T19:54:31;4.80;99.90
38604;DHT22;24924;50.054;8.790;2023-01-16T19:59:23;4.60;99.90
38604;DHT22;24924;50.054;8.790;2023-01-16T20:01:58;4.70;99.90
38604;DHT22;24924;50.054;8.790;2023-01-16T20:04:26;4.70;99.90
38604;DHT22;24924;50.054;8.790;2023-01-16T20:06:53;4.30;99.90
38604;DHT22;24924;50.054;8.790;2023-01-16T20:09:20;5.40;99.90
38604;DHT22;24924;50.054;8.790;2023-01-16T20:11:46;4.80;99.90
38604;DHT22;24924;50.054;8.790;2023-01-16T20:19:24;4.30;99.90
38604;DHT22;24924;50.054;8.790;2023-01-16T20:21:52;4.80;99.90
38604;DHT22;24924;50.054;8.790;2023-01-16T20:24:18;4.80;99.90
38604;DHT22;24924;50.054;8.790;2023-01-16T20:26:45;4.80;99.90
38604;DHT22;24924;50.054;8.790;2023-01-16T20:29:14;4.80;99.90
38604;DHT22;24924;50.054;8.790;2023-01-16T20:31:41;4.80;99.90
38604;DHT22;24924;50.054;8.790;2023-01-16T20:34:07;4.20;99.90
38604;DHT22;24924;50.054;8.790;2023-01-16T20:36:33;4.80;99.90
38604;DHT22;24924;50.054;8.790;2023-01-16T20:39:01;4.50;99.90
38604;DHT22;24924;50.054;8.790;2023-01-16T20:44:17;4.90;99.90
38604;DHT22;24924;50.054;8.790;2023-01-16T20:47:04;4.40;99.90
38604;DHT22;24924;50.054;8.790;2023-01-16T20:51:58;4.80;99.90
38604;DHT22;24924;50.054;8.790;2023-01-16T20:56:54;4.80;99.90
38604;DHT22;24924;50.054;8.790;2023-01-16T20:59:21;4.90;99.90
38604;DHT22;24924;50.054;8.790;2023-01-16T21:01:48;4.90;99.90
38604;DHT22;24924;50.054;8.790;2023-01-16T21:04:15;4.90;99.90
38604;DHT22;24924;50.054;8.790;2023-01-16T21:06:46;4.90;99.90
38604;DHT22;24924;50.054;8.790;2023-01-16T21:09:13;4.90;99.90
38604;DHT22;24924;50.054;8.790;2023-01-16T21:11:41;4.90;99.90
38604;DHT22;24924;50.054;8.790;2023-01-16T21:14:25;4.90;99.90
38604;DHT22;24924;50.054;8.790;2023-01-16T21:16:51;4.70;99.90
38604;DHT22;24924;50.054;8.790;2023-01-16T21:19:36;4.00;99.90
38604;DHT22;24924;50.054;8.790;2023-01-16T21:22:26;4.80;99.90
38604;DHT22;24924;50.054;8.790;2023-01-16T21:24:53;4.80;99.90
38604;DHT22;24924;50.054;8.790;2023-01-16T21:29:58;4.80;99.90
38604;DHT22;24924;50.054;8.790;2023-01-16T21:32:25;4.90;99.90
38604;DHT22;24924;50.054;8.790;2023-01-16T21:34:51;4.50;99.90
38604;DHT22;24924;50.054;8.790;2023-01-16T21:37:19;4.50;99.90
38604;DHT22;24924;50.054;8.790;2023-01-16T21:42:13;4.30;99.90
38604;DHT22;24924;50.054;8.790;2023-01-16T21:50:10;5.00;99.90
38604;DHT22;24924;50.054;8.790;2023-01-16T21:52:36;4.60;99.90
38604;DHT22;24924;50.054;8.790;2023-01-16T21:55:04;5.10;99.90
38604;DHT22;24924;50.054;8.790;2023-01-16T21:57:30;5.00;99.90
38604;DHT22;24924;50.054;8.790;2023-01-16T22:04:49;5.10;99.90
38604;DHT22;24924;50.054;8.790;2023-01-16T22:12:08;5.30;99.90
38604;DHT22;24924;50.054;8.790;2023-01-16T22:20:19;4.70;99.90
38604;DHT22;24924;50.054;8.790;2023-01-16T22:22:48;5.30;99.90
38604;DHT22;24924;50.054;8.790;2023-01-16T22:25:23;5.20;99.90
38604;DHT22;24924;50.054;8.790;2023-01-16T22:27:55;4.90;99.90
38604;DHT22;24924;50.054;8.790;2023-01-16T22:32:50;4.50;99.90
38604;DHT22;24924;50.054;8.790;2023-01-16T22:35:16;5.40;99.90
38604;DHT22;24924;50.054;8.790;2023-01-16T22:40:09;6.00;99.90
38604;DHT22;24924;50.054;8.790;2023-01-16T22:42:35;6.00;99.90
38604;DHT22;24924;50.054;8.790;2023-01-16T22:45:01;5.10;99.90
38604;DHT22;24924;50.054;8.790;2023-01-16T22:57:31;5.00;99.90
38604;DHT22;24924;50.054;8.790;2023-01-16T23:09:41;5.70;99.90
38604;DHT22;24924;50.054;8.790;2023-01-16T23:12:08;4.90;99.90
38604;DHT22;24924;50.054;8.790;2023-01-16T23:17:00;4.10;99.90
38604;DHT22;24924;50.054;8.790;2023-01-16T23:19:31;4.90;99.90
38604;DHT22;24924;50.054;8.790;2023-01-16T23:21:58;4.80;99.90
38604;DHT22;24924;50.054;8.790;2023-01-16T23:24:30;4.60;99.90
38604;DHT22;24924;50.054;8.790;2023-01-16T23:26:59;4.80;99.90
38604;DHT22;24924;50.054;8.790;2023-01-16T23:31:53;5.10;99.90
38604;DHT22;24924;50.054;8.790;2023-01-16T23:34:21;4.90;99.90
38604;DHT22;24924;50.054;8.790;2023-01-16T23:36:54;4.90;99.90
38604;DHT22;24924;50.054;8.790;2023-01-16T23:39:22;4.30;99.90
38604;DHT22;24924;50.054;8.790;2023-01-16T23:47:09;4.90;99.90
38604;DHT22;24924;50.054;8.790;2023-01-16T23:49:43;4.60;99.90
38604;DHT22;24924;50.054;8.790;2023-01-16T23:52:12;4.60;99.90
38604;DHT22;24924;50.054;8.790;2023-01-16T23:54:38;5.00;99.90
38604;DHT22;24924;50.054;8.790;2023-01-16T23:57:19;4.30;99.90
